Time;durP1;ratioP1;P1;durP2;ratioP2;P2;SDS_P1;SDS_P2;PMS_P1;PMS_P2;Temp;Humidity;BMP_temperature;BMP_pressure;BME280_temperature;BME280_humidity;BME280_pressure;Samples;Min_cycle;Max_cycle;Signal;HPM_P1;HPM_P2
2023/10/23 00:00:44;;;;;;;1.98;1.58;;;;;;;19.56;52.18;101226.63;5047165;28;20243;-49
2023/10/23 00:03:09;;;;;;;2.25;1.35;;;;;;;19.58;52.16;101232.69;5038236;28;20060;-49
2023/10/23 00:05:34;;;;;;;2.53;1.52;;;;;;;19.51;51.91;101229.81;5034635;28;20412;-47
2023/10/23 00:08:00;;;;;;;1.65;1.50;;;;;;;19.56;52.19;101245.50;5038042;28;20029;-47
2023/10/23 00:10:25;;;;;;;1.48;1.30;;;;;;;19.52;52.16;101228.81;5035310;28;20052;-47
2023/10/23 00:12:50;;;;;;;2.20;1.80;;;;;;;19.54;52.29;101236.72;5038994;28;20044;-47
2023/10/23 00:15:15;;;;;;;2.35;1.80;;;;;;;19.53;52.17;101229.66;5036163;28;20037;-47
2023/10/23 00:17:41;;;;;;;1.70;1.60;;;;;;;19.51;52.07;101232.53;5037562;28;20041;-48
2023/10/23 00:20:08;;;;;;;1.95;1.67;;;;;;;19.50;52.42;101236.22;5039996;28;20033;-49
2023/10/23 00:22:33;;;;;;;2.50;1.60;;;;;;;19.49;52.24;101235.38;5043809;28;20044;-48
2023/10/23 00:24:58;;;;;;;2.10;1.70;;;;;;;19.48;52.05;101244.47;5040817;28;20053;-47
2023/10/23 00:27:24;;;;;;;2.03;1.60;;;;;;;19.47;52.44;101247.34;5039385;28;20269;-49
2023/10/23 00:29:49;;;;;;;1.92;1.60;;;;;;;19.46;52.04;101242.97;5034538;28;20126;-49
2023/10/23 00:32:14;;;;;;;2.25;1.60;;;;;;;19.46;52.11;101249.19;5033888;28;20106;-49
2023/10/23 00:34:39;;;;;;;1.42;1.33;;;;;;;19.45;51.99;101254.72;5031476;28;20081;-51
2023/10/23 00:37:05;;;;;;;2.22;1.83;;;;;;;19.43;52.33;101249.50;5034886;28;20038;-47
2023/10/23 00:39:30;;;;;;;1.83;1.65;;;;;;;19.41;52.04;101246.16;5034214;28;20399;-47
2023/10/23 00:41:55;;;;;;;1.55;1.45;;;;;;;19.41;52.23;101248.84;5033891;28;20051;-48
2023/10/23 00:44:21;;;;;;;2.88;1.70;;;;;;;19.41;52.52;101245.28;5040619;28;20084;-49
2023/10/23 00:46:46;;;;;;;1.55;1.42;;;;;;;19.39;52.02;101248.16;5035223;28;20109;-48
2023/10/23 00:49:11;;;;;;;2.42;2.10;;;;;;;19.38;52.06;101238.38;5037001;28;20068;-48
2023/10/23 00:51:37;;;;;;;2.58;1.95;;;;;;;19.37;52.15;101241.22;5017034;28;20040;-50
2023/10/23 00:54:03;;;;;;;3.08;2.55;;;;;;;19.36;52.42;101244.94;5020760;28;20041;-48
2023/10/23 00:56:29;;;;;;;3.38;2.10;;;;;;;19.29;52.18;101238.53;5038257;28;20308;-48
2023/10/23 00:58:54;;;;;;;2.70;1.80;;;;;;;19.17;52.37;101211.00;5012838;28;20037;-49
2023/10/23 01:01:20;;;;;;;1.70;1.50;;;;;;;19.32;52.46;101239.03;5017040;28;20065;-48
2023/10/23 01:03:45;;;;;;;2.58;1.73;;;;;;;19.25;52.51;101229.06;5023732;28;20053;-50
2023/10/23 01:06:12;;;;;;;1.77;1.30;;;;;;;19.31;52.21;101244.59;5039959;28;20048;-52
2023/10/23 01:08:38;;;;;;;1.85;1.55;;;;;;;19.30;52.23;101242.91;5037441;28;20060;-48
2023/10/23 01:11:03;;;;;;;1.83;1.40;;;;;;;19.29;52.08;101246.63;5030630;28;20157;-49
2023/10/23 01:13:30;;;;;;;1.98;1.63;;;;;;;19.21;52.13;101229.38;5036271;28;20351;-50
2023/10/23 01:15:55;;;;;;;1.63;1.50;;;;;;;19.27;52.20;101249.44;5039327;28;20033;-49
2023/10/23 01:18:21;;;;;;;2.78;1.67;;;;;;;19.27;52.01;101251.31;5034348;28;20033;-48
2023/10/23 01:20:47;;;;;;;1.85;1.40;;;;;;;19.25;52.34;101254.19;5034163;28;20041;-49
2023/10/23 01:23:12;;;;;;;2.50;2.15;;;;;;;19.25;52.02;101250.63;5042495;28;20088;-50
2023/10/23 01:25:40;;;;;;;1.83;1.50;;;;;;;19.23;52.00;101256.19;5041639;28;20102;-49
2023/10/23 01:28:06;;;;;;;1.67;1.55;;;;;;;19.22;52.01;101249.09;5026502;28;20060;-46
2023/10/23 01:30:31;;;;;;;1.80;1.48;;;;;;;19.14;52.06;101249.91;5034121;28;20030;-47
2023/10/23 01:32:57;;;;;;;2.38;1.90;;;;;;;19.20;52.04;101254.66;5026182;28;20052;-48
2023/10/23 01:35:22;;;;;;;4.03;1.60;;;;;;;19.19;52.07;101250.25;5034347;28;20758;-47
2023/10/23 01:37:48;;;;;;;1.60;1.50;;;;;;;19.18;52.09;101255.81;5035574;28;20089;-48
2023/10/23 01:40:13;;;;;;;1.67;1.58;;;;;;;19.18;52.26;101247.75;5033928;28;20032;-49
2023/10/23 01:42:40;;;;;;;2.53;1.50;;;;;;;19.14;52.15;101249.91;5032359;28;20033;-49
2023/10/23 01:45:06;;;;;;;2.35;1.70;;;;;;;19.15;52.33;101250.75;5037512;28;20056;-48
2023/10/23 01:47:31;;;;;;;2.08;1.65;;;;;;;19.15;52.29;101265.06;5034091;28;20037;-50
2023/10/23 01:49:56;;;;;;;2.28;1.60;;;;;;;19.14;52.17;101257.16;5039764;28;20040;-51
2023/10/23 01:52:21;;;;;;;1.75;1.50;;;;;;;19.13;52.02;101258.16;5033620;28;20060;-48
2023/10/23 01:54:50;;;;;;;2.13;1.83;;;;;;;19.09;51.88;101259.50;5032935;28;20032;-47
2023/10/23 01:57:15;;;;;;;1.67;1.48;;;;;;;19.11;52.20;101262.84;5040573;28;20030;-48
2023/10/23 01:59:41;;;;;;;1.73;1.58;;;;;;;19.10;51.91;101267.41;5038999;28;20044;-49
2023/10/23 02:02:06;;;;;;;1.85;1.50;;;;;;;18.95;52.17;101247.47;5034616;28;20022;-49
2023/10/23 02:04:33;;;;;;;1.77;1.40;;;;;;;19.09;52.08;101273.81;5030718;28;20057;-48
2023/10/23 02:06:59;;;;;;;1.80;1.50;;;;;;;19.07;52.23;101281.19;5035795;28;20538;-49
2023/10/23 02:09:24;;;;;;;1.63;1.52;;;;;;;19.07;52.07;101291.13;5031049;28;20510;-47
2023/10/23 02:11:49;;;;;;;2.40;1.60;;;;;;;19.07;52.30;101283.03;5038757;28;20781;-48
2023/10/23 02:14:15;;;;;;;1.58;1.42;;;;;;;18.89;52.47;101253.50;5036403;28;20120;-48
2023/10/23 02:16:40;;;;;;;1.50;1.40;;;;;;;19.06;52.31;101284.91;5031137;28;20033;-47
2023/10/23 02:19:05;;;;;;;2.00;1.80;;;;;;;19.06;52.13;101284.06;5037581;28;20087;-50
2023/10/23 02:21:31;;;;;;;1.77;1.50;;;;;;;19.06;52.43;101281.38;5036437;28;20089;-48
2023/10/23 02:23:56;;;;;;;1.67;1.58;;;;;;;18.89;52.34;101251.63;5029508;28;20072;-49
2023/10/23 02:26:21;;;;;;;2.35;1.73;;;;;;;19.03;52.09;101281.69;5032286;28;20256;-48
2023/10/23 02:28:47;;;;;;;1.92;1.45;;;;;;;19.03;52.16;101273.59;5036823;28;20034;-49
2023/10/23 02:31:14;;;;;;;2.53;1.80;;;;;;;19.06;52.40;101276.81;5035774;28;20029;-48
2023/10/23 02:33:39;;;;;;;4.00;2.08;;;;;;;19.08;52.45;101290.16;5031417;28;20041;-47
2023/10/23 02:36:05;;;;;;;2.35;1.50;;;;;;;19.00;52.41;101276.63;5034115;28;20372;-49
2023/10/23 02:38:30;;;;;;;1.70;1.48;;;;;;;19.09;52.05;101294.53;5038091;28;20046;-50
2023/10/23 02:40:56;;;;;;;3.20;1.92;;;;;;;19.10;52.24;101294.34;5040758;28;20060;-48
2023/10/23 02:43:21;;;;;;;1.75;1.65;;;;;;;19.11;52.36;101292.50;5032641;28;20049;-48
2023/10/23 02:45:46;;;;;;;2.25;1.70;;;;;;;19.12;52.12;101291.53;5036578;28;20411;-49
2023/10/23 02:48:13;;;;;;;2.10;1.42;;;;;;;19.14;52.39;101292.19;5033781;28;20108;-48
2023/10/23 02:50:38;;;;;;;1.95;1.50;;;;;;;19.12;52.05;101289.66;5040115;28;20033;-48
2023/10/23 02:53:05;;;;;;;1.95;1.33;;;;;;;19.14;52.37;101293.03;5040129;28;20116;-48
2023/10/23 02:55:30;;;;;;;1.90;1.65;;;;;;;19.19;52.21;101301.47;5038078;28;20033;-47
2023/10/23 02:57:56;;;;;;;2.28;1.60;;;;;;;19.21;52.00;101298.63;5033848;28;20259;-48
2023/10/23 03:00:21;;;;;;;2.33;1.65;;;;;;;19.23;51.85;101307.41;5037882;28;20318;-49
2023/10/23 03:02:46;;;;;;;1.85;1.50;;;;;;;19.25;51.81;101309.94;5029843;28;20026;-49
2023/10/23 03:05:13;;;;;;;1.83;1.38;;;;;;;19.19;51.86;101297.94;5037150;28;20037;-49
2023/10/23 03:07:39;;;;;;;1.85;1.45;;;;;;;19.29;52.18;101304.06;5039135;28;20056;-48
2023/10/23 03:10:04;;;;;;;2.35;1.60;;;;;;;19.32;51.67;101306.41;5036231;28;20049;-47
2023/10/23 03:12:30;;;;;;;1.83;1.48;;;;;;;19.34;51.93;101319.75;5032056;28;20026;-52
2023/10/23 03:14:55;;;;;;;2.40;1.52;;;;;;;19.37;51.63;101320.28;5036485;28;20036;-52
2023/10/23 03:17:21;;;;;;;1.85;1.40;;;;;;;19.40;51.87;101317.25;5032142;28;20030;-47
2023/10/23 03:19:46;;;;;;;1.85;1.67;;;;;;;19.26;51.58;101280.13;5035682;28;20032;-51
2023/10/23 03:22:11;;;;;;;2.13;1.40;;;;;;;19.45;51.78;101306.84;5037262;28;20089;-48
2023/10/23 03:24:36;;;;;;;1.83;1.50;;;;;;;19.49;51.65;101301.94;5037326;28;20094;-48
2023/10/23 03:27:02;;;;;;;1.83;1.60;;;;;;;19.52;51.46;101306.19;5035061;28;20029;-48
2023/10/23 03:29:27;;;;;;;1.80;1.40;;;;;;;19.54;51.62;101305.03;5037791;28;20040;-51
2023/10/23 03:31:52;;;;;;;1.90;1.40;;;;;;;19.46;51.29;101286.94;5034340;28;20061;-51
2023/10/23 03:34:18;;;;;;;1.60;1.33;;;;;;;19.59;51.50;101291.88;5039395;28;20025;-49
2023/10/23 03:36:44;;;;;;;1.83;1.42;;;;;;;19.62;51.04;101296.97;5036295;28;20029;-50
2023/10/23 03:39:09;;;;;;;1.45;1.30;;;;;;;19.65;51.28;101299.34;5035752;28;20026;-47
2023/10/23 03:41:35;;;;;;;1.75;1.27;;;;;;;19.68;51.41;101303.56;5033101;28;20383;-49
2023/10/23 03:44:02;;;;;;;1.30;1.20;;;;;;;19.71;51.27;101305.94;5030257;28;20026;-48
2023/10/23 03:46:27;;;;;;;1.42;1.33;;;;;;;19.73;51.19;101304.75;5037161;28;20109;-50
2023/10/23 03:48:54;;;;;;;2.25;1.40;;;;;;;19.77;51.19;101307.97;5037250;28;20025;-47
2023/10/23 03:51:20;;;;;;;1.55;1.33;;;;;;;19.80;51.12;101310.34;5044876;28;20025;-49
2023/10/23 03:53:45;;;;;;;1.83;1.58;;;;;;;19.82;50.96;101316.41;5032319;28;20470;-47
2023/10/23 03:56:11;;;;;;;1.92;1.67;;;;;;;19.86;51.04;101317.78;5043818;28;20037;-48
2023/10/23 03:58:36;;;;;;;1.55;1.20;;;;;;;19.84;50.81;101303.63;5042533;28;20089;-48
2023/10/23 04:01:02;;;;;;;1.48;1.23;;;;;;;19.84;50.52;101302.78;5031845;28;20033;-48
2023/10/23 04:03:28;;;;;;;1.83;1.27;;;;;;;19.94;50.17;101315.09;5036615;28;20089;-49
2023/10/23 04:05:53;;;;;;;1.40;1.10;;;;;;;19.96;50.58;101318.50;5039359;28;20064;-51
2023/10/23 04:08:18;;;;;;;1.42;1.20;;;;;;;20.00;50.59;101318.97;5038841;28;20037;-49
2023/10/23 04:10:45;;;;;;;2.22;1.65;;;;;;;20.03;50.92;101312.41;5036587;28;20060;-48
2023/10/23 04:13:10;;;;;;;1.23;1.13;;;;;;;19.87;50.87;101286.22;5040816;28;20034;-48
2023/10/23 04:15:35;;;;;;;1.75;1.30;;;;;;;20.11;50.87;101320.53;5035762;28;20032;-49
2023/10/23 04:18:01;;;;;;;1.77;1.20;;;;;;;20.13;50.94;101313.09;5038166;28;20056;-48
2023/10/23 04:20:26;;;;;;;2.88;1.38;;;;;;;20.15;51.01;101309.22;5039445;28;20064;-49
2023/10/23 04:22:51;;;;;;;1.58;1.33;;;;;;;20.19;51.09;101315.16;5042194;28;20417;-47
2023/10/23 04:25:17;;;;;;;1.98;1.25;;;;;;;20.23;50.94;101311.09;5036765;28;20038;-49
2023/10/23 04:27:42;;;;;;;3.42;1.60;;;;;;;20.04;50.95;101279.84;5032032;28;20036;-49
2023/10/23 04:30:09;;;;;;;1.58;1.48;;;;;;;20.29;51.21;101321.22;5035433;28;20034;-47
2023/10/23 04:32:34;;;;;;;1.52;1.40;;;;;;;20.31;51.24;101318.38;5033780;28;20029;-46
2023/10/23 04:34:59;;;;;;;4.43;1.48;;;;;;;20.32;50.93;101317.34;5036482;28;20101;-47
2023/10/23 04:37:24;;;;;;;4.00;1.58;;;;;;;20.39;51.01;101321.03;5038091;28;20033;-46
2023/10/23 04:39:50;;;;;;;1.73;1.25;;;;;;;20.42;51.04;101326.13;5036483;28;20044;-47
2023/10/23 04:42:15;;;;;;;1.80;1.10;;;;;;;20.43;50.85;101317.88;5039190;28;20786;-49
2023/10/23 04:44:40;;;;;;;2.75;1.33;;;;;;;20.46;50.75;101320.22;5043327;28;20069;-47
2023/10/23 04:47:05;;;;;;;2.58;1.45;;;;;;;20.51;51.01;101318.88;5025857;28;20067;-50
2023/10/23 04:49:31;;;;;;;1.48;1.38;;;;;;;20.51;50.74;101314.31;5029799;28;20031;-48
2023/10/23 04:51:56;;;;;;;1.83;1.27;;;;;;;20.54;50.94;101310.44;5034272;28;20384;-50
2023/10/23 04:54:21;;;;;;;2.88;1.40;;;;;;;20.56;51.08;101311.13;5033068;28;20068;-48
2023/10/23 04:56:47;;;;;;;1.35;1.25;;;;;;;20.45;50.68;101279.88;5026984;28;20531;-49
2023/10/23 04:59:12;;;;;;;1.88;1.38;;;;;;;20.61;50.99;101306.06;5008050;28;20025;-51
2023/10/23 05:01:38;;;;;;;1.67;1.40;;;;;;;20.63;50.74;101306.72;5037295;28;20038;-47
2023/10/23 05:04:04;;;;;;;1.88;1.20;;;;;;;20.66;50.60;101306.41;5036985;28;20029;-48
2023/10/23 05:06:29;;;;;;;1.60;1.48;;;;;;;20.69;50.44;101308.78;5033758;28;20125;-49
2023/10/23 05:08:54;;;;;;;4.10;1.33;;;;;;;20.71;50.86;101309.44;5031808;28;20041;-47
2023/10/23 05:11:20;;;;;;;1.52;1.35;;;;;;;20.72;50.38;101303.00;5032906;28;20113;-47
2023/10/23 05:13:49;;;;;;;2.20;1.48;;;;;;;20.75;50.46;101304.53;5025528;28;20515;-47
2023/10/23 05:16:14;;;;;;;1.38;1.20;;;;;;;20.78;50.25;101305.03;5028565;28;20025;-47
2023/10/23 05:18:39;;;;;;;2.60;1.40;;;;;;;20.80;50.61;101311.09;5008829;28;20034;-47
2023/10/23 05:21:06;;;;;;;1.65;1.38;;;;;;;20.69;50.34;101287.16;5034503;28;20041;-48
2023/10/23 05:23:31;;;;;;;1.98;1.20;;;;;;;20.85;50.18;101313.28;5038093;28;20021;-47
2023/10/23 05:25:56;;;;;;;2.08;1.30;;;;;;;20.86;50.13;101315.84;5033142;28;20061;-47
2023/10/23 05:28:22;;;;;;;2.50;1.50;;;;;;;20.86;50.03;101321.25;5032596;28;20491;-47
2023/10/23 05:30:50;;;;;;;1.20;1.00;;;;;;;20.87;49.95;101320.22;5034682;28;20084;-47
2023/10/23 05:33:15;;;;;;;2.53;1.40;;;;;;;20.91;49.88;101318.00;5032654;28;20104;-47
2023/10/23 05:35:40;;;;;;;1.98;1.38;;;;;;;20.92;49.77;101320.53;5032110;28;20036;-48
2023/10/23 05:38:05;;;;;;;1.65;1.20;;;;;;;20.94;49.82;101323.06;5035580;28;20022;-48
2023/10/23 05:40:31;;;;;;;1.85;1.10;;;;;;;20.94;50.08;101315.81;5026214;28;20030;-49
2023/10/23 05:42:56;;;;;;;1.98;1.77;;;;;;;20.95;49.98;101324.78;5030421;28;20031;-49
2023/10/23 05:45:21;;;;;;;1.90;1.20;;;;;;;20.96;49.90;101324.59;5039203;28;20112;-49
2023/10/23 05:47:46;;;;;;;1.85;1.50;;;;;;;20.97;49.82;101323.56;5033737;28;20026;-48
2023/10/23 05:50:12;;;;;;;1.70;1.35;;;;;;;20.99;49.84;101328.81;5033579;28;20025;-49
2023/10/23 05:52:37;;;;;;;1.52;1.20;;;;;;;20.97;49.88;101331.66;5031799;28;20090;-49
2023/10/23 05:55:04;;;;;;;2.88;1.40;;;;;;;20.97;49.52;101326.25;5024066;28;20037;-50
2023/10/23 05:57:30;;;;;;;1.70;1.30;;;;;;;20.99;49.64;101333.38;5029894;28;20036;-51
2023/10/23 05:59:55;;;;;;;2.53;1.52;;;;;;;20.91;49.56;101320.72;5039753;28;20029;-53
2023/10/23 06:02:20;;;;;;;2.10;1.30;;;;;;;20.95;49.51;101325.59;5031259;28;20021;-48
2023/10/23 06:04:46;;;;;;;1.70;1.48;;;;;;;20.96;49.38;101330.00;5035291;28;20036;-48
2023/10/23 06:07:12;;;;;;;1.75;1.30;;;;;;;20.95;49.53;101330.19;5036367;28;20045;-48
2023/10/23 06:09:37;;;;;;;1.63;1.35;;;;;;;20.94;49.65;101334.75;5038026;28;20046;-48
2023/10/23 06:12:03;;;;;;;1.48;1.35;;;;;;;20.94;49.72;101340.16;5039504;28;20057;-48
2023/10/23 06:14:28;;;;;;;5.15;1.38;;;;;;;20.93;49.71;101332.19;5034676;28;20026;-48
2023/10/23 06:16:53;;;;;;;2.17;1.40;;;;;;;20.93;49.85;101332.19;5035078;28;20021;-48
2023/10/23 06:19:18;;;;;;;1.40;1.20;;;;;;;20.92;49.69;101335.91;5024117;28;20555;-50
2023/10/23 06:21:44;;;;;;;1.83;1.30;;;;;;;20.93;49.66;101343.00;5040101;28;20053;-49
2023/10/23 06:24:09;;;;;;;2.05;1.75;;;;;;;20.92;49.36;101336.75;5023420;28;20040;-48
2023/10/23 06:26:34;;;;;;;2.00;1.60;;;;;;;20.91;49.52;101336.94;5035833;28;20523;-48
2023/10/23 06:28:59;;;;;;;2.28;1.27;;;;;;;20.91;49.67;101343.19;5023596;28;20033;-50
2023/10/23 06:31:25;;;;;;;2.97;2.08;;;;;;;20.91;49.63;101334.22;5036403;28;20034;-48
2023/10/23 06:33:51;;;;;;;1.83;1.42;;;;;;;20.85;49.44;101324.94;5036553;28;20488;-48
2023/10/23 06:36:17;;;;;;;2.67;1.95;;;;;;;20.89;49.60;101331.69;5015331;28;20034;-48
2023/10/23 06:38:42;;;;;;;2.13;1.33;;;;;;;20.89;49.38;101330.84;5030758;28;20028;-49
2023/10/23 06:41:07;;;;;;;2.20;1.50;;;;;;;20.80;49.46;101321.06;5040536;28;20051;-49
2023/10/23 06:43:34;;;;;;;1.60;1.30;;;;;;;20.89;49.30;101344.34;5034236;28;20022;-50
2023/10/23 06:45:59;;;;;;;3.80;1.65;;;;;;;20.80;49.50;101327.31;5018510;28;20026;-48
2023/10/23 06:48:24;;;;;;;2.58;1.50;;;;;;;20.86;49.70;101334.75;5038116;28;20116;-50
2023/10/23 06:50:50;;;;;;;2.40;1.60;;;;;;;20.86;49.43;101342.03;5039637;28;20035;-51
2023/10/23 06:53:15;;;;;;;1.52;1.40;;;;;;;20.85;49.52;101338.44;5016548;28;20042;-51
2023/10/23 06:55:54;;;;;;;2.60;1.30;;;;;;;20.85;49.56;101337.59;5037020;28;20044;-51
2023/10/23 06:58:20;;;;;;;;;;;;;;;20.86;49.34;101339.31;5031503;28;20033;-48
2023/10/23 07:00:46;;;;;;;1.58;1.48;;;;;;;20.84;49.52;101344.03;5032966;28;20257;-51
2023/10/23 07:03:11;;;;;;;1.85;1.50;;;;;;;20.83;49.54;101339.66;5036460;28;20030;-50
2023/10/23 07:05:37;;;;;;;1.85;1.52;;;;;;;20.82;49.42;101340.66;5033897;28;20025;-48
2023/10/23 07:08:03;;;;;;;1.38;1.27;;;;;;;20.76;49.67;101331.38;5017863;28;20108;-48
2023/10/23 07:10:31;;;;;;;1.50;1.40;;;;;;;20.81;49.47;101338.97;5040685;28;20057;-48
2023/10/23 07:12:56;;;;;;;1.92;1.73;;;;;;;20.80;49.58;101338.13;5034159;28;20033;-49
2023/10/23 07:15:21;;;;;;;1.88;1.38;;;;;;;20.80;49.56;101331.88;5032207;28;20087;-49
2023/10/23 07:17:47;;;;;;;2.30;1.52;;;;;;;20.79;49.77;101327.50;5036603;28;20134;-48
2023/10/23 07:20:16;;;;;;;2.05;1.30;;;;;;;20.68;49.80;101307.91;5033604;28;20038;-51
2023/10/23 07:22:42;;;;;;;1.90;1.30;;;;;;;20.77;49.45;101330.34;5036523;28;20029;-49
2023/10/23 07:25:07;;;;;;;2.13;1.48;;;;;;;20.76;49.84;101328.66;5035172;28;20112;-49
2023/10/23 07:27:33;;;;;;;3.00;1.38;;;;;;;20.75;49.85;101331.56;5032913;28;20037;-49
2023/10/23 07:29:58;;;;;;;2.15;1.50;;;;;;;20.74;49.62;101330.72;5042692;28;20051;-47
2023/10/23 07:32:23;;;;;;;1.58;1.33;;;;;;;20.71;49.79;101333.75;5037148;28;20037;-48
2023/10/23 07:34:48;;;;;;;2.20;1.60;;;;;;;20.76;49.42;101355.69;5027743;28;20029;-49
2023/10/23 07:37:18;;;;;;;2.30;1.70;;;;;;;20.75;49.57;101356.72;5038768;28;20048;-50
2023/10/23 07:39:47;;;;;;;1.88;1.35;;;;;;;20.76;49.55;101352.97;5034332;28;20029;-48
2023/10/23 07:42:13;;;;;;;1.83;1.48;;;;;;;20.75;49.91;101353.16;5038538;28;20025;-48
2023/10/23 07:44:38;;;;;;;1.60;1.50;;;;;;;20.74;49.64;101360.44;5036023;28;20032;-51
2023/10/23 07:47:03;;;;;;;3.08;1.48;;;;;;;20.72;49.50;101363.28;5039304;28;20035;-50
2023/10/23 07:49:29;;;;;;;1.63;1.50;;;;;;;20.67;49.76;101351.31;5031974;28;20021;-49
2023/10/23 07:51:54;;;;;;;3.28;1.70;;;;;;;20.70;49.69;101350.97;5033887;28;20057;-48
2023/10/23 07:54:20;;;;;;;1.38;1.27;;;;;;;20.62;49.71;101348.28;5039240;28;20030;-47
2023/10/23 07:56:45;;;;;;;1.45;1.25;;;;;;;20.70;49.86;101353.69;5040497;28;20091;-49
2023/10/23 07:59:11;;;;;;;1.75;1.45;;;;;;;20.70;49.68;101362.63;5039373;28;20040;-51
2023/10/23 08:01:36;;;;;;;1.75;1.30;;;;;;;20.56;49.63;101336.31;5034532;28;20442;-51
2023/10/23 08:04:01;;;;;;;2.10;1.70;;;;;;;20.70;49.85;101364.50;5035736;28;20064;-49
2023/10/23 08:06:26;;;;;;;1.95;1.55;;;;;;;20.69;49.86;101366.34;5036245;28;20100;-50
2023/10/23 08:08:52;;;;;;;1.40;1.20;;;;;;;20.69;49.95;101366.34;5034522;28;20080;-49
2023/10/23 08:11:17;;;;;;;3.30;1.25;;;;;;;20.68;49.70;101370.03;5023813;28;20041;-48
2023/10/23 08:13:42;;;;;;;1.48;1.38;;;;;;;20.63;49.73;101364.31;5040514;28;20029;-47
2023/10/23 08:16:08;;;;;;;1.90;1.65;;;;;;;20.66;49.69;101372.09;5038803;28;20033;-50
2023/10/23 08:18:36;;;;;;;1.77;1.50;;;;;;;20.65;50.10;101367.69;5038712;28;20041;-49
2023/10/23 08:21:11;;;;;;;1.13;1.02;;;;;;;20.65;49.83;101369.56;5038652;28;20044;-49
2023/10/23 08:23:37;;;;;;;1.42;1.30;;;;;;;20.65;49.69;101366.84;5036866;28;20096;-48
2023/10/23 08:26:03;;;;;;;1.30;1.15;;;;;;;20.65;49.91;101372.25;5034391;28;20032;-50
2023/10/23 08:28:29;;;;;;;1.70;1.40;;;;;;;20.64;49.74;101371.38;5035796;28;20224;-48
2023/10/23 08:30:54;;;;;;;1.55;1.27;;;;;;;20.64;49.88;101371.38;5038046;28;20044;-50
2023/10/23 08:33:20;;;;;;;2.10;1.45;;;;;;;20.59;49.82;101359.41;5035197;28;20038;-49
2023/10/23 08:35:45;;;;;;;1.65;1.40;;;;;;;20.62;49.72;101370.72;5022050;28;20046;-49
2023/10/23 08:38:10;;;;;;;1.83;1.60;;;;;;;20.63;49.93;101368.88;5040418;28;20033;-48
2023/10/23 08:40:36;;;;;;;2.10;1.50;;;;;;;20.61;49.97;101366.34;5033713;28;20056;-49
2023/10/23 08:43:02;;;;;;;1.60;1.23;;;;;;;20.32;49.70;101317.34;5040671;28;20021;-48
2023/10/23 08:45:27;;;;;;;2.00;1.50;;;;;;;20.62;49.82;101367.19;5036670;28;20045;-47
2023/10/23 08:47:53;;;;;;;2.72;1.40;;;;;;;20.61;50.00;101365.50;5034916;28;20078;-48
2023/10/23 08:50:18;;;;;;;2.25;1.75;;;;;;;20.61;49.99;101365.50;5041181;28;20048;-49
2023/10/23 08:52:45;;;;;;;1.67;1.50;;;;;;;20.59;50.04;101362.94;5020872;28;20535;-49
2023/10/23 08:55:14;;;;;;;2.45;1.50;;;;;;;20.41;50.07;101344.19;5023632;28;20033;-49
2023/10/23 08:57:49;;;;;;;1.40;1.30;;;;;;;20.59;49.82;101362.94;5036825;28;20021;-48
2023/10/23 09:00:14;;;;;;;1.45;1.30;;;;;;;20.59;50.23;101362.13;5038237;28;20033;-50
2023/10/23 09:02:39;;;;;;;2.20;1.80;;;;;;;20.58;50.30;101355.03;5034987;28;20278;-49
2023/10/23 09:05:05;;;;;;;1.52;1.40;;;;;;;20.57;49.88;101356.06;5037344;28;20034;-49
2023/10/23 09:07:31;;;;;;;1.70;1.48;;;;;;;20.56;50.28;101351.63;5034212;28;20025;-48
2023/10/23 09:10:00;;;;;;;1.77;1.33;;;;;;;20.56;49.87;101360.63;5035561;28;20105;-48
2023/10/23 09:12:31;;;;;;;1.40;1.30;;;;;;;20.56;49.88;101365.13;5018467;28;20102;-47
2023/10/23 09:14:56;;;;;;;2.72;1.98;;;;;;;20.56;50.05;101357.91;5040668;28;20543;-49
2023/10/23 09:17:23;;;;;;;1.67;1.50;;;;;;;20.30;50.33;101317.50;5035752;28;20182;-48
2023/10/23 09:19:49;;;;;;;1.90;1.50;;;;;;;20.34;49.96;101329.66;5039029;28;20121;-49
2023/10/23 09:22:14;;;;;;;1.80;1.40;;;;;;;20.54;50.01;101359.06;5043490;28;20437;-48
2023/10/23 09:24:39;;;;;;;3.47;1.50;;;;;;;20.53;50.34;101352.00;5033552;28;20037;-50
2023/10/23 09:27:04;;;;;;;2.50;1.83;;;;;;;20.52;50.37;101347.59;5033467;28;20029;-49
2023/10/23 09:29:30;;;;;;;3.13;1.70;;;;;;;20.53;49.90;101347.44;5040190;28;20040;-49
2023/10/23 09:31:59;;;;;;;3.53;1.95;;;;;;;20.04;50.45;101258.25;5034735;28;20501;-50
2023/10/23 09:34:25;;;;;;;2.47;1.80;;;;;;;20.45;50.29;101323.09;5039048;28;20301;-49
2023/10/23 09:36:51;;;;;;;1.98;1.80;;;;;;;20.54;50.23;101345.56;5018218;28;20034;-48
2023/10/23 09:39:23;;;;;;;1.90;1.55;;;;;;;20.54;50.13;101345.56;5034410;28;20534;-47
2023/10/23 09:41:49;;;;;;;2.65;2.08;;;;;;;20.55;50.03;101341.84;5038439;28;20503;-50
2023/10/23 09:44:15;;;;;;;2.63;2.08;;;;;;;20.38;50.16;101306.69;5038110;28;20040;-49
2023/10/23 09:46:43;;;;;;;4.07;2.17;;;;;;;20.57;49.73;101331.72;5038992;28;20049;-47
2023/10/23 09:49:09;;;;;;;3.35;1.85;;;;;;;20.58;50.18;101342.38;5036888;28;20032;-50
2023/10/23 09:51:39;;;;;;;4.10;1.80;;;;;;;20.59;50.35;101341.34;5030258;28;20093;-48
2023/10/23 09:54:19;;;;;;;2.10;1.73;;;;;;;20.60;50.26;101340.34;5037432;28;20021;-49
2023/10/23 09:56:52;;;;;;;2.42;1.83;;;;;;;20.62;50.21;101346.41;5033330;28;20021;-49
2023/10/23 09:59:33;;;;;;;2.67;2.10;;;;;;;20.63;49.97;101350.78;5038182;28;20116;-50
2023/10/23 10:02:00;;;;;;;2.25;1.80;;;;;;;20.63;50.15;101350.78;5021219;28;20021;-50
2023/10/23 10:04:42;;;;;;;4.60;2.20;;;;;;;20.67;50.23;101357.56;5037279;28;20025;-49
2023/10/23 10:07:11;;;;;;;2.53;1.95;;;;;;;20.69;50.08;101358.25;5023638;28;20116;-50
2023/10/23 10:09:37;;;;;;;2.67;2.28;;;;;;;20.72;49.83;101359.75;5039422;28;20058;-49
2023/10/23 10:12:03;;;;;;;2.67;1.83;;;;;;;20.74;50.11;101354.19;5036560;28;20076;-49
2023/10/23 10:14:30;;;;;;;4.47;1.85;;;;;;;20.71;49.90;101342.69;5034961;28;20029;-51
2023/10/23 10:16:57;;;;;;;2.60;1.70;;;;;;;20.79;49.82;101355.34;5029264;28;20089;-49
2023/10/23 10:19:24;;;;;;;2.50;1.95;;;;;;;20.82;50.08;101348.78;5035122;28;20416;-49
2023/10/23 10:22:04;;;;;;;2.67;2.08;;;;;;;20.84;49.77;101347.56;5033703;28;20025;-47
2023/10/23 10:24:31;;;;;;;3.70;2.17;;;;;;;20.86;50.02;101342.03;5019939;28;20085;-48
2023/10/23 10:26:57;;;;;;;3.40;1.95;;;;;;;20.88;49.99;101342.69;5021059;28;20023;-48
2023/10/23 10:29:25;;;;;;;3.65;2.22;;;;;;;20.91;50.18;101354.00;5036506;28;20033;-49
2023/10/23 10:32:05;;;;;;;3.05;2.20;;;;;;;20.95;49.73;101347.22;5035493;28;20033;-48
2023/10/23 10:34:35;;;;;;;2.75;2.10;;;;;;;20.77;50.00;101316.00;5032240;28;20037;-47
2023/10/23 10:37:01;;;;;;;2.92;2.28;;;;;;;21.02;50.13;101341.13;5027330;28;20033;-48
2023/10/23 10:39:52;;;;;;;2.90;1.90;;;;;;;21.04;49.95;101337.25;5034786;28;20033;-48
2023/10/23 10:42:28;;;;;;;3.35;2.05;;;;;;;21.08;49.70;101329.63;5028238;28;20052;-48
2023/10/23 10:45:16;;;;;;;2.53;2.10;;;;;;;21.12;49.76;101339.09;5036624;28;20026;-49
2023/10/23 10:47:43;;;;;;;3.33;2.03;;;;;;;21.14;49.87;101337.88;5036579;28;20030;-51
2023/10/23 10:50:10;;;;;;;2.45;1.90;;;;;;;21.10;49.90;101325.72;5020718;28;20044;-49
2023/10/23 10:52:36;;;;;;;1.77;1.67;;;;;;;21.14;49.92;101318.97;5016471;28;20030;-52
2023/10/23 10:55:06;;;;;;;2.40;1.55;;;;;;;21.25;49.61;101333.13;5033731;28;20094;-49
2023/10/23 10:57:31;;;;;;;2.58;2.22;;;;;;;21.28;49.53;101327.38;5034613;28;20021;-50
2023/10/23 10:59:58;;;;;;;2.75;1.80;;;;;;;21.33;49.66;101327.75;5020271;28;20064;-49
2023/10/23 11:02:23;;;;;;;3.20;1.77;;;;;;;21.21;49.63;101306.44;5039999;28;20037;-50
2023/10/23 11:04:49;;;;;;;2.47;2.03;;;;;;;21.40;49.62;101321.44;5019265;28;20064;-51
2023/10/23 11:07:15;;;;;;;2.28;1.88;;;;;;;21.43;49.19;101321.09;5021552;28;20036;-51
2023/10/23 11:09:41;;;;;;;2.30;2.10;;;;;;;21.51;49.12;101316.69;5019586;28;20050;-50
2023/10/23 11:12:07;;;;;;;2.17;1.85;;;;;;;21.56;49.05;101311.56;5041528;28;20049;-51
2023/10/23 11:14:32;;;;;;;2.55;2.00;;;;;;;21.61;48.90;101301.91;5039408;28;20025;-49
2023/10/23 11:16:57;;;;;;;2.65;1.77;;;;;;;21.67;48.70;101297.66;5039044;28;20189;-50
2023/10/23 11:19:23;;;;;;;2.42;2.08;;;;;;;21.72;48.82;101297.97;5038583;28;20032;-47